Time;durP1;ratioP1;P1;durP2;ratioP2;P2;SDS_P1;SDS_P2;PMS_P1;PMS_P2;Temp;Humidity;BMP_temperature;BMP_pressure;BME280_temperature;BME280_humidity;BME280_pressure;Samples;Min_cycle;Max_cycle;Signal;HPM_P1;HPM_P2
2024/02/05 00:00:42;;;;;;;5.23;2.70;;;11.00;99.90;;;;;;4850881;29;20201;-72
2024/02/05 00:03:09;;;;;;;7.07;2.70;;;11.00;99.90;;;;;;4851270;29;20292;-71
2024/02/05 00:05:36;;;;;;;9.80;3.10;;;11.00;99.90;;;;;;4851162;29;20452;-71
2024/02/05 00:08:03;;;;;;;10.73;2.90;;;11.00;99.90;;;;;;4834136;29;20690;-70
2024/02/05 00:10:29;;;;;;;7.93;3.13;;;11.00;99.90;;;;;;4865929;29;20496;-72
2024/02/05 00:12:55;;;;;;;9.40;3.30;;;11.00;99.90;;;;;;4848805;29;20477;-72
2024/02/05 00:15:20;;;;;;;6.70;2.30;;;11.00;99.90;;;;;;4849803;29;20425;-71
2024/02/05 00:17:46;;;;;;;11.70;3.23;;;11.00;99.90;;;;;;4849814;29;20193;-71
2024/02/05 00:20:12;;;;;;;8.40;3.07;;;11.00;99.90;;;;;;4851857;29;20191;-73
2024/02/05 00:22:38;;;;;;;8.07;3.40;;;11.00;99.90;;;;;;4849257;29;20197;-70
2024/02/05 00:25:05;;;;;;;11.80;3.13;;;11.00;99.90;;;;;;4849592;29;20427;-70
2024/02/05 00:27:31;;;;;;;17.20;4.30;;;11.00;99.90;;;;;;4848493;29;20875;-71
2024/02/05 00:29:57;;;;;;;9.87;3.67;;;11.00;99.90;;;;;;4843700;29;20504;-70
2024/02/05 00:32:22;;;;;;;8.83;3.40;;;11.00;99.90;;;;;;4844705;29;20311;-70
2024/02/05 00:34:48;;;;;;;13.53;3.97;;;11.00;99.90;;;;;;4846085;29;20197;-68
2024/02/05 00:37:13;;;;;;;6.67;2.70;;;11.00;99.90;;;;;;4843914;29;20214;-71
2024/02/05 00:39:39;;;;;;;13.63;3.33;;;11.00;99.90;;;;;;4844802;29;20587;-70
2024/02/05 00:42:04;;;;;;;9.80;4.10;;;11.10;99.90;;;;;;4845670;29;20219;-70
2024/02/05 00:44:30;;;;;;;9.40;3.33;;;11.10;99.90;;;;;;4845961;29;20233;-70
2024/02/05 00:46:56;;;;;;;7.77;2.80;;;11.10;99.90;;;;;;4846446;29;20304;-71
2024/02/05 00:49:21;;;;;;;9.30;3.30;;;11.10;99.90;;;;;;4853396;29;20473;-70
2024/02/05 00:51:47;;;;;;;16.10;3.67;;;11.10;99.90;;;;;;4847973;29;20239;-70
2024/02/05 00:54:12;;;;;;;6.07;2.80;;;11.00;99.90;;;;;;4848047;29;20497;-70
2024/02/05 00:56:38;;;;;;;10.37;3.67;;;11.00;99.90;;;;;;4845518;29;20228;-71
2024/02/05 00:59:06;;;;;;;11.80;3.40;;;11.00;99.90;;;;;;4844174;29;20198;-70
2024/02/05 01:01:33;;;;;;;11.47;5.63;;;11.00;99.90;;;;;;4843812;29;20186;-70
2024/02/05 01:03:58;;;;;;;8.07;3.30;;;11.00;99.90;;;;;;4849201;29;20431;-70
2024/02/05 01:06:24;;;;;;;11.87;4.37;;;11.00;99.90;;;;;;4844197;29;20878;-70
2024/02/05 01:08:50;;;;;;;20.30;4.87;;;11.00;99.90;;;;;;4844181;29;20618;-70
2024/02/05 01:11:15;;;;;;;15.80;4.33;;;11.10;99.90;;;;;;4843676;29;20270;-69
2024/02/05 01:13:41;;;;;;;10.10;4.10;;;11.10;99.90;;;;;;4843476;29;20481;-70
2024/02/05 01:16:07;;;;;;;13.43;3.70;;;11.10;99.90;;;;;;4842836;29;20399;-70
2024/02/05 01:18:32;;;;;;;8.43;3.57;;;11.10;99.90;;;;;;4849517;29;20547;-71
2024/02/05 01:20:59;;;;;;;15.80;4.60;;;11.00;99.90;;;;;;4844051;29;20600;-70
2024/02/05 01:23:25;;;;;;;12.73;3.33;;;11.00;99.90;;;;;;4843783;29;20285;-70
2024/02/05 01:25:51;;;;;;;24.80;5.10;;;11.00;99.90;;;;;;4843501;29;20455;-72
2024/02/05 01:28:16;;;;;;;11.30;3.80;;;11.00;99.90;;;;;;4842969;29;20682;-70
2024/02/05 01:30:43;;;;;;;12.60;4.10;;;11.00;99.90;;;;;;4844266;29;20221;-69
2024/02/05 01:33:10;;;;;;;9.50;3.47;;;11.00;99.90;;;;;;4847874;29;20560;-70
2024/02/05 01:35:36;;;;;;;17.00;4.70;;;11.00;99.90;;;;;;4843765;29;20534;-70
2024/02/05 01:38:02;;;;;;;15.07;4.17;;;11.00;99.90;;;;;;4843362;29;20420;-69
2024/02/05 01:40:27;;;;;;;16.07;4.03;;;11.00;99.90;;;;;;4843429;29;20274;-69
2024/02/05 01:42:53;;;;;;;12.83;3.63;;;11.00;99.90;;;;;;4844639;29;20430;-70
2024/02/05 01:45:18;;;;;;;20.13;4.43;;;11.00;99.90;;;;;;4859509;29;20230;-71
2024/02/05 01:47:44;;;;;;;11.30;3.43;;;11.00;99.90;;;;;;4847393;29;20187;-70
2024/02/05 01:50:12;;;;;;;16.33;4.10;;;11.00;99.90;;;;;;4849376;29;20205;-71
2024/02/05 01:52:42;;;;;;;12.80;3.27;;;11.00;99.90;;;;;;4849129;29;20422;-70
2024/02/05 01:55:12;;;;;;;13.90;4.10;;;11.00;99.90;;;;;;4846121;29;20432;-71
2024/02/05 01:57:38;;;;;;;12.33;3.80;;;11.00;99.90;;;;;;4847208;29;20404;-71
2024/02/05 02:00:05;;;;;;;20.13;4.50;;;11.00;99.90;;;;;;4847666;29;20488;-70
2024/02/05 02:02:40;;;;;;;16.17;5.10;;;10.90;99.90;;;;;;4844113;29;20434;-72
2024/02/05 02:05:06;;;;;;;11.00;3.90;;;11.00;99.90;;;;;;4845598;29;20810;-69
2024/02/05 02:07:32;;;;;;;17.33;5.10;;;10.90;99.90;;;;;;4843626;29;20482;-71
2024/02/05 02:09:58;;;;;;;19.63;4.03;;;10.90;99.90;;;;;;4843527;29;20836;-70
2024/02/05 02:12:24;;;;;;;15.73;4.17;;;10.90;99.90;;;;;;4842884;29;20640;-69
2024/02/05 02:14:50;;;;;;;12.80;4.77;;;10.90;99.90;;;;;;4844156;29;20463;-70
2024/02/05 02:17:16;;;;;;;12.50;4.33;;;10.90;99.90;;;;;;4844324;29;20439;-70
2024/02/05 02:19:48;;;;;;;9.93;3.63;;;10.90;99.90;;;;;;4844935;29;20205;-69
2024/02/05 02:22:42;;;;;;;16.87;5.50;;;10.90;99.90;;;;;;4845830;29;20431;-70
2024/02/05 02:25:08;;;;;;;12.17;4.13;;;10.90;99.90;;;;;;4843369;29;20719;-69
2024/02/05 02:27:33;;;;;;;15.70;4.70;;;10.90;99.90;;;;;;4845983;29;20451;-69
2024/02/05 02:30:00;;;;;;;17.17;5.97;;;10.90;99.90;;;;;;4847095;29;20281;-70
2024/02/05 02:32:50;;;;;;;11.83;4.47;;;10.90;99.90;;;;;;4846183;29;20460;-72
2024/02/05 02:35:31;;;;;;;15.40;4.20;;;10.90;99.90;;;;;;4846739;29;20538;-71
2024/02/05 02:38:00;;;;;;;15.30;4.30;;;10.90;99.90;;;;;;4847079;29;20441;-76
2024/02/05 02:40:28;;;;;;;12.93;4.03;;;11.00;99.90;;;;;;4846517;29;20446;-70
2024/02/05 02:43:06;;;;;;;12.40;4.93;;;11.00;99.90;;;;;;4847639;29;20429;-71
2024/02/05 02:45:32;;;;;;;10.50;4.40;;;10.90;99.90;;;;;;4848746;29;20556;-71
2024/02/05 02:47:58;;;;;;;16.27;3.60;;;10.90;99.90;;;;;;4849015;29;20433;-70
2024/02/05 02:50:24;;;;;;;14.90;4.60;;;10.90;99.90;;;;;;4847652;29;20796;-70
2024/02/05 02:52:49;;;;;;;16.10;6.10;;;10.90;99.90;;;;;;4846132;29;20246;-71
2024/02/05 02:55:15;;;;;;;14.97;4.83;;;10.90;99.90;;;;;;4846536;29;20185;-69
2024/02/05 02:57:41;;;;;;;19.40;5.07;;;10.90;99.90;;;;;;4846378;29;20228;-69
2024/02/05 03:00:09;;;;;;;14.23;5.03;;;10.90;99.90;;;;;;4846603;29;20583;-70
2024/02/05 03:02:35;;;;;;;18.30;3.97;;;10.80;99.90;;;;;;4846276;29;20210;-69
2024/02/05 03:05:02;;;;;;;12.30;3.93;;;10.80;99.90;;;;;;4849115;29;20453;-70
2024/02/05 03:07:27;;;;;;;20.50;5.60;;;10.80;99.90;;;;;;4846607;29;20441;-70
2024/02/05 03:09:54;;;;;;;22.07;5.23;;;10.80;99.90;;;;;;4845919;29;20427;-70
2024/02/05 03:12:20;;;;;;;15.37;4.70;;;10.80;99.90;;;;;;4845389;29;20273;-70
2024/02/05 03:14:46;;;;;;;14.33;4.30;;;10.80;99.90;;;;;;4845566;29;20551;-70
2024/02/05 03:17:11;;;;;;;17.37;4.80;;;10.80;99.90;;;;;;4845968;29;20226;-69
2024/02/05 03:19:37;;;;;;;18.77;5.63;;;10.80;99.90;;;;;;4846997;29;20197;-70
2024/02/05 03:22:03;;;;;;;17.53;4.50;;;10.80;99.90;;;;;;4848212;29;20292;-71
2024/02/05 03:24:29;;;;;;;17.00;5.03;;;10.80;99.90;;;;;;4845795;29;20206;-70
2024/02/05 03:26:54;;;;;;;13.10;4.00;;;10.80;99.90;;;;;;4844997;29;20454;-70
2024/02/05 03:29:20;;;;;;;21.90;5.87;;;10.90;99.90;;;;;;4845328;29;20202;-70
2024/02/05 03:31:46;;;;;;;25.03;5.30;;;10.80;99.90;;;;;;4845574;29;20300;-69
2024/02/05 03:34:11;;;;;;;11.40;4.20;;;10.80;99.90;;;;;;4851795;29;20521;-70
2024/02/05 03:36:37;;;;;;;15.83;4.40;;;10.80;99.90;;;;;;4844872;29;20221;-69
2024/02/05 03:39:03;;;;;;;11.93;3.90;;;10.80;99.90;;;;;;4844033;29;20674;-70
2024/02/05 03:41:29;;;;;;;21.07;4.60;;;10.80;99.90;;;;;;4845322;29;20188;-70
2024/02/05 03:43:54;;;;;;;15.60;5.63;;;10.80;99.90;;;;;;4844779;29;20466;-70
2024/02/05 03:46:20;;;;;;;17.93;5.10;;;10.70;99.90;;;;;;4845912;29;20613;-71
2024/02/05 03:48:54;;;;;;;17.83;4.63;;;10.70;99.90;;;;;;4849877;29;20212;-70
2024/02/05 03:51:20;;;;;;;18.93;4.17;;;10.80;99.90;;;;;;4845572;29;20569;-70
2024/02/05 03:53:45;;;;;;;23.73;4.97;;;10.80;99.90;;;;;;4845379;29;20500;-70
2024/02/05 03:56:12;;;;;;;16.80;4.50;;;10.70;99.90;;;;;;4844992;29;21788;-70
2024/02/05 03:58:38;;;;;;;19.47;5.60;;;10.80;99.90;;;;;;4845092;29;20517;-70
2024/02/05 04:01:05;;;;;;;21.10;4.93;;;10.70;99.90;;;;;;4844745;29;20469;-70
2024/02/05 04:03:30;;;;;;;21.13;6.03;;;10.80;99.90;;;;;;4849871;29;20716;-70
2024/02/05 04:05:57;;;;;;;17.33;4.93;;;10.70;99.90;;;;;;4844857;29;20463;-70
2024/02/05 04:08:24;;;;;;;16.00;5.77;;;10.70;99.90;;;;;;4844528;29;20214;-70
2024/02/05 04:10:51;;;;;;;13.50;5.10;;;10.70;99.90;;;;;;4844492;29;20478;-70
2024/02/05 04:13:17;;;;;;;16.67;4.27;;;10.70;99.90;;;;;;4844444;29;20435;-70
2024/02/05 04:15:43;;;;;;;13.30;4.90;;;10.70;99.90;;;;;;4845613;29;20489;-71
2024/02/05 04:18:09;;;;;;;21.40;6.10;;;10.70;99.90;;;;;;4848936;29;20495;-71
2024/02/05 04:20:35;;;;;;;14.63;5.13;;;10.70;99.90;;;;;;4849552;29;20512;-70
2024/02/05 04:23:00;;;;;;;22.47;4.67;;;10.70;99.90;;;;;;4844552;29;20256;-69
2024/02/05 04:25:26;;;;;;;17.47;4.67;;;10.70;99.90;;;;;;4844318;29;20343;-70
2024/02/05 04:27:51;;;;;;;18.30;5.50;;;10.70;99.90;;;;;;4844323;29;20207;-70
2024/02/05 04:30:17;;;;;;;12.13;5.67;;;10.70;99.90;;;;;;4843654;29;20213;-69
2024/02/05 04:32:43;;;;;;;21.20;6.23;;;10.60;99.90;;;;;;4845489;29;20183;-70
2024/02/05 04:35:09;;;;;;;17.70;5.87;;;10.70;99.90;;;;;;4846014;29;20459;-71
2024/02/05 04:37:35;;;;;;;19.60;4.83;;;10.70;99.90;;;;;;4844568;29;20203;-69
2024/02/05 04:40:01;;;;;;;16.27;4.60;;;10.70;99.90;;;;;;4844499;29;20297;-71
2024/02/05 04:42:26;;;;;;;26.40;4.53;;;10.70;99.90;;;;;;4843726;29;20528;-70
2024/02/05 04:44:52;;;;;;;22.00;5.83;;;10.70;99.90;;;;;;4843925;29;20222;-70
2024/02/05 04:47:18;;;;;;;18.77;5.37;;;10.70;99.90;;;;;;4843632;29;20214;-70
2024/02/05 04:49:45;;;;;;;14.77;5.00;;;10.60;99.90;;;;;;4846673;29;20204;-70
2024/02/05 04:52:11;;;;;;;16.23;4.77;;;10.70;99.90;;;;;;4847122;29;20657;-71
2024/02/05 04:54:37;;;;;;;10.73;3.87;;;10.70;99.90;;;;;;4848265;29;20411;-71
2024/02/05 04:57:03;;;;;;;22.43;4.97;;;10.70;99.90;;;;;;4844074;29;20227;-71
2024/02/05 04:59:28;;;;;;;18.53;4.87;;;10.70;99.90;;;;;;4844618;29;20579;-70
2024/02/05 05:01:54;;;;;;;24.93;4.57;;;10.60;99.90;;;;;;4845545;29;20258;-71
2024/02/05 05:04:19;;;;;;;18.43;5.00;;;10.60;99.90;;;;;;4847844;29;20201;-71
2024/02/05 05:06:45;;;;;;;15.43;4.83;;;10.60;99.90;;;;;;4846010;29;20233;-71
2024/02/05 05:09:11;;;;;;;18.23;5.10;;;10.70;99.90;;;;;;4845525;29;20495;-73
2024/02/05 05:11:37;;;;;;;15.67;4.47;;;10.70;99.90;;;;;;4846410;29;20622;-70
2024/02/05 05:14:02;;;;;;;14.13;5.07;;;10.60;99.90;;;;;;4845871;29;20435;-71
2024/02/05 05:16:30;;;;;;;21.93;4.43;;;10.60;99.90;;;;;;4847170;29;20232;-74
2024/02/05 05:18:58;;;;;;;12.90;6.37;;;10.60;99.90;;;;;;4850588;29;20214;-71
2024/02/05 05:21:24;;;;;;;21.07;5.77;;;10.60;99.90;;;;;;4848347;29;20496;-71
2024/02/05 05:23:50;;;;;;;18.60;4.97;;;10.60;99.90;;;;;;4847442;29;20430;-72
2024/02/05 05:26:15;;;;;;;12.97;4.37;;;10.60;99.90;;;;;;4846989;29;20213;-72
2024/02/05 05:28:43;;;;;;;20.13;4.90;;;10.60;99.90;;;;;;4846708;29;20276;-70
2024/02/05 05:31:11;;;;;;;16.67;4.10;;;10.60;99.90;;;;;;4846175;29;20270;-71
2024/02/05 05:33:36;;;;;;;20.10;5.17;;;10.60;99.90;;;;;;4849332;29;20422;-74
2024/02/05 05:36:03;;;;;;;21.57;6.17;;;10.60;99.90;;;;;;4846749;29;20459;-74
2024/02/05 05:38:30;;;;;;;14.87;4.57;;;10.60;99.90;;;;;;4848941;29;20276;-73
2024/02/05 05:40:55;;;;;;;22.33;5.07;;;10.60;99.90;;;;;;4853462;29;20464;-72
2024/02/05 05:43:21;;;;;;;15.70;5.13;;;10.60;99.90;;;;;;4852859;29;20430;-72
2024/02/05 05:45:47;;;;;;;13.40;4.70;;;10.60;99.90;;;;;;4847700;29;20237;-71
2024/02/05 05:48:12;;;;;;;35.67;7.10;;;10.60;99.90;;;;;;4849171;29;20200;-71
2024/02/05 05:50:38;;;;;;;13.17;4.83;;;10.70;99.90;;;;;;4846181;29;20230;-72
2024/02/05 05:53:04;;;;;;;19.70;5.10;;;10.60;99.90;;;;;;4847577;29;20190;-72
2024/02/05 05:55:29;;;;;;;9.10;4.33;;;10.60;99.90;;;;;;4846376;29;20243;-70
2024/02/05 05:57:55;;;;;;;17.57;5.47;;;10.60;99.90;;;;;;4847639;29;20197;-72
2024/02/05 06:00:22;;;;;;;11.33;4.07;;;10.70;99.90;;;;;;4849912;29;20214;-72
2024/02/05 06:02:48;;;;;;;28.70;5.60;;;10.70;99.90;;;;;;4857354;29;20189;-71
2024/02/05 06:05:14;;;;;;;15.70;5.17;;;10.60;99.90;;;;;;4854625;29;20447;-73
2024/02/05 06:07:40;;;;;;;12.20;4.37;;;10.60;99.90;;;;;;4853194;29;20431;-72
2024/02/05 06:10:06;;;;;;;16.67;5.13;;;10.60;99.90;;;;;;4852480;29;20185;-72
2024/02/05 06:12:32;;;;;;;25.17;5.37;;;10.70;99.90;;;;;;4852644;29;20469;-71
2024/02/05 06:14:57;;;;;;;18.17;5.27;;;10.60;99.90;;;;;;4855264;29;20415;-75
2024/02/05 06:17:23;;;;;;;24.53;6.10;;;10.60;99.90;;;;;;4854673;29;20210;-71
2024/02/05 06:19:48;;;;;;;12.73;5.53;;;10.60;99.90;;;;;;4860082;29;20208;-71
2024/02/05 06:22:14;;;;;;;24.33;5.53;;;10.60;99.90;;;;;;4854676;29;20250;-72
2024/02/05 06:24:39;;;;;;;19.43;5.03;;;10.60;99.90;;;;;;4851250;29;20197;-74
2024/02/05 06:27:07;;;;;;;17.80;4.80;;;10.60;99.90;;;;;;4870820;29;20284;-72
2024/02/05 06:29:33;;;;;;;20.00;6.80;;;10.50;99.90;;;;;;4860619;29;20274;-71
2024/02/05 06:31:58;;;;;;;11.43;4.27;;;10.50;99.90;;;;;;4861161;29;20527;-73
2024/02/05 06:34:25;;;;;;;15.27;4.70;;;10.60;99.90;;;;;;4864156;29;20270;-72
2024/02/05 06:36:51;;;;;;;14.17;5.30;;;10.50;99.90;;;;;;4859397;29;20225;-75
2024/02/05 06:39:16;;;;;;;17.83;5.17;;;10.50;99.90;;;;;;4859000;29;20508;-75
2024/02/05 06:41:42;;;;;;;21.10;5.60;;;10.50;99.90;;;;;;4860049;29;20467;-74
2024/02/05 06:44:07;;;;;;;18.37;5.47;;;10.50;99.90;;;;;;4871231;29;20251;-74
2024/02/05 06:46:33;;;;;;;15.40;4.63;;;10.60;99.90;;;;;;4856432;29;20224;-74
2024/02/05 06:48:59;;;;;;;15.00;5.03;;;10.60;99.90;;;;;;4862003;29;20556;-71
2024/02/05 06:51:25;;;;;;;24.33;6.17;;;10.50;99.90;;;;;;4854868;29;20222;-75
2024/02/05 06:53:51;;;;;;;13.23;4.60;;;10.50;99.90;;;;;;4855321;29;20229;-76
2024/02/05 06:56:16;;;;;;;14.60;5.00;;;10.50;99.90;;;;;;4853662;29;20450;-72
2024/02/05 06:58:42;;;;;;;17.37;4.70;;;10.40;99.90;;;;;;4854199;29;20201;-74
2024/02/05 07:01:07;;;;;;;19.87;4.97;;;10.50;99.90;;;;;;4854428;29;20281;-75
2024/02/05 07:03:33;;;;;;;13.30;4.13;;;10.50;99.90;;;;;;4858369;29;20198;-74
2024/02/05 07:05:58;;;;;;;21.73;5.70;;;10.50;99.90;;;;;;4852646;29;20336;-74
2024/02/05 07:08:24;;;;;;;14.00;5.27;;;10.50;99.90;;;;;;4853496;29;20181;-72
2024/02/05 07:10:49;;;;;;;16.90;4.97;;;10.50;99.90;;;;;;4853876;29;20302;-74
2024/02/05 07:13:15;;;;;;;13.37;5.07;;;10.60;99.90;;;;;;4851888;29;20281;-75
2024/02/05 07:15:41;;;;;;;13.10;4.60;;;10.50;99.90;;;;;;4851576;29;20310;-74
2024/02/05 07:18:06;;;;;;;22.07;4.23;;;10.50;99.90;;;;;;4853182;29;20214;-74
2024/02/05 07:20:32;;;;;;;13.60;4.93;;;10.50;99.90;;;;;;4852553;29;20200;-71
2024/02/05 07:22:57;;;;;;;19.33;4.77;;;10.50;99.90;;;;;;4850176;29;20193;-71
2024/02/05 07:25:25;;;;;;;14.50;4.80;;;10.50;99.90;;;;;;4866357;29;20213;-75
2024/02/05 07:27:50;;;;;;;25.83;7.07;;;10.50;99.90;;;;;;4852028;29;20193;-74
2024/02/05 07:30:16;;;;;;;22.63;5.77;;;10.60;99.90;;;;;;4851059;29;20410;-72
2024/02/05 07:32:43;;;;;;;10.20;3.67;;;10.50;99.90;;;;;;4855053;29;20256;-75
2024/02/05 07:35:09;;;;;;;18.47;4.60;;;10.50;99.90;;;;;;4855000;29;20205;-72
2024/02/05 07:37:36;;;;;;;15.67;4.40;;;10.60;99.90;;;;;;4853054;29;20460;-71
2024/02/05 07:40:05;;;;;;;10.67;4.43;;;10.60;99.90;;;;;;4851837;29;20526;-75
2024/02/05 07:42:31;;;;;;;14.57;4.60;;;10.50;99.90;;;;;;4854389;29;20518;-75
2024/02/05 07:44:56;;;;;;;10.27;4.20;;;10.50;99.90;;;;;;4849693;29;20494;-74
2024/02/05 07:47:22;;;;;;;9.43;3.63;;;10.50;99.90;;;;;;4850942;29;20527;-72
2024/02/05 07:49:48;;;;;;;9.37;3.30;;;10.50;99.90;;;;;;4867643;29;20257;-73
2024/02/05 07:52:14;;;;;;;12.27;4.37;;;10.50;99.90;;;;;;4851915;29;20268;-74
2024/02/05 07:54:40;;;;;;;8.80;3.87;;;10.50;99.90;;;;;;4852030;29;20272;-74
2024/02/05 07:57:06;;;;;;;15.20;4.40;;;10.50;99.90;;;;;;4851035;29;20477;-73
2024/02/05 07:59:31;;;;;;;8.93;3.30;;;10.60;99.90;;;;;;4865746;29;20205;-73
2024/02/05 08:01:58;;;;;;;13.70;4.43;;;10.50;99.90;;;;;;4854380;29;20201;-74
2024/02/05 08:04:23;;;;;;;17.97;3.20;;;10.50;99.90;;;;;;4839933;29;20530;-74
2024/02/05 08:06:50;;;;;;;12.70;4.13;;;10.50;99.90;;;;;;4854113;29;20462;-75
2024/02/05 08:09:15;;;;;;;12.73;3.23;;;10.50;99.90;;;;;;4852526;29;20223;-74
2024/02/05 08:11:41;;;;;;;16.97;4.53;;;10.50;99.90;;;;;;4849832;29;20473;-72
2024/02/05 08:14:10;;;;;;;8.80;3.60;;;10.60;99.90;;;;;;4870271;29;20642;-74
2024/02/05 08:16:35;;;;;;;15.73;4.10;;;10.70;99.90;;;;;;4855846;29;20469;-75
2024/02/05 08:19:01;;;;;;;16.40;4.57;;;10.60;99.90;;;;;;4850989;29;20442;-74
2024/02/05 08:21:27;;;;;;;12.10;3.90;;;10.60;99.90;;;;;;4853758;29;20197;-73
2024/02/05 08:23:52;;;;;;;7.00;3.17;;;10.60;99.90;;;;;;4851658;29;20217;-74
2024/02/05 08:26:18;;;;;;;19.23;5.37;;;10.60;99.90;;;;;;4850836;29;20297;-76
2024/02/05 08:28:45;;;;;;;10.97;4.03;;;10.60;99.90;;;;;;4852766;29;20225;-74
2024/02/05 08:31:10;;;;;;;15.30;4.10;;;10.60;99.90;;;;;;4866615;29;20304;-74
2024/02/05 08:33:36;;;;;;;11.70;3.90;;;10.70;99.90;;;;;;4855583;29;20482;-76
2024/02/05 08:36:01;;;;;;;17.23;5.70;;;10.70;99.90;;;;;;4854627;29;20293;-76
2024/02/05 08:38:27;;;;;;;11.07;3.87;;;10.80;99.90;;;;;;4855826;29;20217;-75
2024/02/05 08:40:56;;;;;;;17.00;5.00;;;10.70;99.90;;;;;;4856517;29;20530;-76
2024/02/05 08:43:22;;;;;;;16.27;4.30;;;10.70;99.90;;;;;;4851779;29;20446;-76
2024/02/05 08:45:48;;;;;;;15.30;4.67;;;10.70;99.90;;;;;;4854114;29;20460;-76
2024/02/05 08:48:14;;;;;;;22.67;5.40;;;10.70;99.90;;;;;;4853726;29;20270;-77
2024/02/05 08:50:39;;;;;;;12.40;4.20;;;10.80;99.90;;;;;;4854439;29;20478;-73
2024/02/05 08:53:06;;;;;;;14.80;4.03;;;10.80;99.90;;;;;;4836057;29;20269;-76
2024/02/05 08:55:32;;;;;;;12.10;3.40;;;10.80;99.90;;;;;;4853225;29;20678;-75
2024/02/05 08:57:59;;;;;;;15.17;4.10;;;10.80;99.90;;;;;;4866798;29;20446;-74
2024/02/05 09:00:24;;;;;;;18.47;4.50;;;10.70;99.90;;;;;;4853926;29;20441;-76
2024/02/05 09:02:52;;;;;;;12.20;3.53;;;10.70;99.90;;;;;;4852282;29;20454;-72
2024/02/05 09:05:17;;;;;;;16.90;4.23;;;10.80;99.90;;;;;;4855491;29;20209;-75
2024/02/05 09:07:43;;;;;;;20.73;5.30;;;10.70;99.90;;;;;;4853934;29;20479;-71
2024/02/05 09:10:09;;;;;;;18.83;5.40;;;10.80;99.90;;;;;;4856166;29;20206;-74
2024/02/05 09:12:35;;;;;;;11.53;3.80;;;10.70;99.90;;;;;;4850829;29;20217;-75
2024/02/05 09:15:01;;;;;;;17.27;3.60;;;10.70;99.90;;;;;;4853929;29;20418;-73
2024/02/05 09:17:27;;;;;;;13.30;3.60;;;10.70;99.90;;;;;;4845639;29;20229;-75
2024/02/05 09:19:52;;;;;;;10.17;4.00;;;10.70;99.90;;;;;;4848309;29;20731;-72
2024/02/05 09:22:19;;;;;;;18.50;5.23;;;10.70;99.90;;;;;;4866868;29;20202;-73
2024/02/05 09:24:45;;;;;;;13.80;4.60;;;10.70;99.90;;;;;;4854256;29;20273;-74
2024/02/05 09:27:11;;;;;;;11.20;4.80;;;10.70;99.90;;;;;;4854484;29;20457;-75
2024/02/05 09:29:37;;;;;;;21.33;3.90;;;10.70;99.90;;;;;;4848143;29;20495;-73
2024/02/05 09:32:05;;;;;;;14.00;4.33;;;10.70;99.90;;;;;;4851896;29;20471;-77
2024/02/05 09:37:08;;;;;;;7.70;3.47;;;10.70;99.90;;;;;;5496557;23;20487;-83
2024/02/05 09:39:35;;;;;;;11.80;3.80;;;10.70;99.90;;;;;;4838365;29;20444;-72
2024/02/05 09:42:02;;;;;;;13.83;4.73;;;10.70;99.90;;;;;;4848566;29;20431;-71
2024/02/05 09:44:29;;;;;;;8.80;3.30;;;10.80;99.90;;;;;;4850751;29;20185;-72
2024/02/05 09:46:59;;;;;;;12.10;3.70;;;10.70;99.90;;;;;;4853273;29;20460;-71
2024/02/05 09:49:24;;;;;;;12.50;3.20;;;10.80;99.90;;;;;;4835583;29;20691;-71
2024/02/05 09:51:51;;;;;;;11.63;4.70;;;10.80;99.90;;;;;;4855058;29;20466;-73
2024/02/05 09:54:17;;;;;;;12.03;3.87;;;10.90;99.90;;;;;;4849976;29;20223;-72
2024/02/05 09:56:43;;;;;;;11.83;4.23;;;10.90;99.90;;;;;;4849312;29;20456;-72
2024/02/05 09:59:12;;;;;;;6.40;2.97;;;11.00;99.90;;;;;;4847753;29;20429;-69
2024/02/05 10:01:38;;;;;;;11.03;3.90;;;10.90;99.90;;;;;;4846489;29;20426;-71
2024/02/05 10:04:07;;;;;;;11.27;4.40;;;11.00;99.90;;;;;;4847305;29;20514;-72
2024/02/05 10:06:36;;;;;;;16.80;3.40;;;11.20;99.90;;;;;;4847461;29;20527;-72
2024/02/05 10:09:10;;;;;;;9.83;4.17;;;11.30;99.90;;;;;;4850975;29;20451;-69
2024/02/05 10:11:44;;;;;;;12.97;4.30;;;11.40;99.90;;;;;;4845595;29;20493;-68
2024/02/05 10:14:10;;;;;;;12.63;3.80;;;11.40;99.90;;;;;;4862446;29;20553;-71
2024/02/05 10:16:39;;;;;;;11.43;3.60;;;11.60;99.90;;;;;;4852334;29;20477;-75
2024/02/05 10:19:05;;;;;;;11.50;4.20;;;11.70;99.90;;;;;;4848466;29;20449;-71
2024/02/05 10:21:32;;;;;;;11.37;3.90;;;11.80;99.90;;;;;;4848202;29;20448;-69
2024/02/05 10:23:58;;;;;;;13.80;4.17;;;12.00;99.90;;;;;;4848248;29;20445;-70
2024/02/05 10:26:24;;;;;;;14.23;5.27;;;12.10;99.90;;;;;;4863415;29;20524;-70
2024/02/05 10:28:50;;;;;;;10.93;4.90;;;12.10;99.90;;;;;;4848524;29;20217;-70
2024/02/05 10:31:16;;;;;;;10.37;4.43;;;12.10;99.90;;;;;;4849211;29;20664;-70
2024/02/05 10:33:45;;;;;;;11.03;3.37;;;12.30;99.90;;;;;;4848164;29;20437;-71
2024/02/05 10:36:13;;;;;;;6.57;3.33;;;12.50;99.90;;;;;;4853168;29;20514;-69
2024/02/05 10:38:40;;;;;;;16.83;4.90;;;12.60;99.90;;;;;;4848337;29;20470;-71
2024/02/05 10:41:05;;;;;;;13.43;3.87;;;12.60;99.90;;;;;;4851425;29;20426;-70
2024/02/05 10:43:31;;;;;;;10.37;4.33;;;12.60;99.90;;;;;;4847513;29;20422;-70
2024/02/05 10:45:58;;;;;;;13.60;4.10;;;12.70;99.90;;;;;;4851365;29;20476;-72
2024/02/05 10:48:24;;;;;;;10.30;3.73;;;13.00;99.90;;;;;;4853272;29;20201;-69
2024/02/05 10:50:50;;;;;;;13.10;4.47;;;13.10;99.90;;;;;;4869709;29;20462;-74
2024/02/05 10:53:17;;;;;;;14.40;5.07;;;13.10;99.90;;;;;;4867933;29;20418;-73
2024/02/05 10:55:45;;;;;;;17.20;4.87;;;13.20;99.90;;;;;;4851752;29;20445;-69
2024/02/05 10:58:13;;;;;;;15.13;4.30;;;13.30;99.80;;;;;;4852764;29;20475;-70
2024/02/05 11:00:40;;;;;;;14.70;4.03;;;13.30;99.80;;;;;;4852570;29;20478;-73
2024/02/05 11:03:08;;;;;;;9.87;3.63;;;13.40;99.70;;;;;;4869117;29;20429;-69
2024/02/05 11:05:37;;;;;;;12.67;3.83;;;13.50;98.90;;;;;;4869268;29;20525;-73
2024/02/05 11:08:09;;;;;;;4.43;2.33;;;13.50;98.50;;;;;;4852856;29;20465;-72
2024/02/05 11:10:42;;;;;;;12.77;5.07;;;13.60;98.40;;;;;;4853552;29;20406;-71
2024/02/05 11:13:11;;;;;;;15.43;5.20;;;13.70;96.00;;;;;;4852661;29;20471;-72
2024/02/05 11:15:39;;;;;;;8.80;3.43;;;13.50;95.70;;;;;;4852663;29;20545;-71
2024/02/05 11:18:20;;;;;;;11.70;4.23;;;13.60;96.20;;;;;;4854859;29;20429;-72
2024/02/05 11:20:49;;;;;;;12.93;4.40;;;13.50;94.90;;;;;;4853057;29;20461;-68
2024/02/05 11:23:17;;;;;;;14.77;4.73;;;13.50;95.40;;;;;;4853745;29;20762;-71
2024/02/05 11:25:42;;;;;;;12.47;3.40;;;13.60;95.80;;;;;;4855264;29;20521;-72
2024/02/05 11:28:12;;;;;;;13.33;4.53;;;13.80;95.40;;;;;;4854647;29;20450;-74
2024/02/05 11:30:45;;;;;;;17.37;4.70;;;13.80;94.00;;;;;;4855231;29;20181;-72
2024/02/05 11:33:11;;;;;;;9.20;3.03;;;13.80;92.80;;;;;;4856707;29;20434;-73
2024/02/05 11:35:47;;;;;;;13.57;4.53;;;13.70;93.50;;;;;;4853805;29;20529;-69
2024/02/05 11:38:13;;;;;;;12.73;5.33;;;13.70;92.90;;;;;;4854574;29;20468;-71
2024/02/05 11:40:39;;;;;;;17.93;5.20;;;13.50;93.00;;;;;;4854124;29;20449;-71
2024/02/05 11:43:06;;;;;;;15.57;5.47;;;13.50;92.80;;;;;;4869364;29;20201;-71
2024/02/05 11:45:32;;;;;;;8.93;3.33;;;13.40;93.30;;;;;;4853244;29;20238;-73
2024/02/05 11:48:03;;;;;;;11.60;3.80;;;13.30;92.90;;;;;;4852509;29;20442;-71
2024/02/05 11:50:31;;;;;;;10.03;3.20;;;13.30;92.70;;;;;;4854379;29;20435;-73
2024/02/05 11:52:57;;;;;;;14.50;3.93;;;13.20;92.50;;;;;;4867343;29;20439;-71
2024/02/05 11:55:25;;;;;;;10.37;4.27;;;13.00;92.90;;;;;;4853941;29;20507;-72
2024/02/05 11:57:51;;;;;;;8.30;4.13;;;13.00;93.50;;;;;;4868480;29;20193;-71
2024/02/05 12:00:18;;;;;;;11.73;4.17;;;13.10;92.70;;;;;;4854649;29;20422;-71
2024/02/05 12:02:48;;;;;;;17.80;4.83;;;12.90;92.80;;;;;;4854455;29;20719;-72
2024/02/05 12:05:15;;;;;;;9.90;3.37;;;13.00;92.60;;;;;;4851355;29;20435;-73
2024/02/05 12:07:41;;;;;;;15.17;4.47;;;12.90;93.20;;;;;;4852890;29;20528;-71
2024/02/05 12:10:09;;;;;;;12.00;3.87;;;13.00;92.70;;;;;;4869613;29;20732;-70
2024/02/05 12:12:36;;;;;;;11.23;3.63;;;13.00;92.40;;;;;;4848632;29;20477;-73
2024/02/05 12:15:04;;;;;;;20.43;4.30;;;12.90;92.50;;;;;;4865394;29;20441;-71
2024/02/05 12:17:33;;;;;;;11.43;3.93;;;12.80;92.70;;;;;;4850092;29;20430;-70
2024/02/05 12:20:00;;;;;;;12.50;3.70;;;12.70;92.90;;;;;;4853183;29;20453;-72
2024/02/05 12:22:30;;;;;;;11.13;3.90;;;12.70;93.30;;;;;;4862472;29;20465;-71
2024/02/05 12:24:56;;;;;;;13.40;5.67;;;12.80;92.70;;;;;;4868291;29;20522;-72
2024/02/05 12:27:22;;;;;;;14.10;4.47;;;12.80;92.90;;;;;;4853576;29;20454;-71
2024/02/05 12:29:48;;;;;;;9.90;3.53;;;12.80;92.50;;;;;;4851103;29;20578;-73
2024/02/05 12:32:14;;;;;;;16.33;3.73;;;12.80;92.70;;;;;;4855112;29;20491;-70
2024/02/05 12:34:40;;;;;;;12.13;3.83;;;12.70;93.10;;;;;;4851969;29;20261;-74
2024/02/05 12:37:09;;;;;;;21.37;5.10;;;12.70;93.00;;;;;;4852358;29;20253;-73